Time;durP1;ratioP1;P1;durP2;ratioP2;P2;SDS_P1;SDS_P2;PMS_P1;PMS_P2;Temp;Humidity;BMP_temperature;BMP_pressure;BME280_temperature;BME280_humidity;BME280_pressure;Samples;Min_cycle;Max_cycle;Signal;HPM_P1;HPM_P2
2021/10/17 00:01:38;;;;;;;39.67;17.58;;;;;;;6.10;76.81;99318.41;4790791;29;20059;-83
2021/10/17 00:04:05;;;;;;;42.80;18.20;;;;;;;6.07;77.03;99306.22;4806757;29;20042;-83
2021/10/17 00:06:31;;;;;;;42.08;17.17;;;;;;;6.12;77.34;99321.63;4806649;29;20042;-84
2021/10/17 00:08:58;;;;;;;47.92;17.92;;;;;;;5.91;77.27;99282.16;4806979;29;20049;-82
2021/10/17 00:11:24;;;;;;;44.55;17.90;;;;;;;6.16;77.17;99320.00;4806833;29;20104;-83
2021/10/17 00:13:51;;;;;;;;;;;;;;;6.16;76.95;99317.28;4790399;29;20050;-83
2021/10/17 00:16:18;;;;;;;54.92;19.77;;;;;;;6.16;76.64;99317.28;4808494;29;19935;-83
2021/10/17 00:18:44;;;;;;;46.58;18.23;;;;;;;6.16;76.67;99322.69;4807372;29;20039;-83
2021/10/17 00:21:10;;;;;;;46.63;18.23;;;;;;;5.99;76.65;99295.13;4791407;29;20417;-83
2021/10/17 00:23:37;;;;;;;49.08;17.95;;;;;;;5.98;76.82;99301.66;4806723;29;20134;-84
2021/10/17 00:26:03;;;;;;;42.72;17.83;;;;;;;6.21;76.42;99324.56;4807287;29;20510;-83
2021/10/17 00:28:32;;;;;;;41.13;16.85;;;;;;;6.09;76.37;99311.34;4806522;29;20050;-84
2021/10/17 00:30:58;;;;;;;44.15;16.60;;;;;;;6.07;76.28;99305.41;4789776;29;20125;-83
2021/10/17 00:33:27;;;;;;;34.40;14.73;;;;;;;6.09;76.28;99312.16;4790415;29;20517;-82
2021/10/17 00:35:53;;;;;;;42.88;17.27;;;;;;;6.17;76.20;99321.59;4806723;29;20126;-83
2021/10/17 00:38:19;;;;;;;43.30;16.10;;;;;;;6.03;76.27;99298.94;4775213;29;20046;-84
2021/10/17 00:40:46;;;;;;;40.38;16.52;;;;;;;6.20;76.21;99329.19;4810421;29;20039;-83
2021/10/17 00:43:14;;;;;;;44.80;16.33;;;;;;;6.11;75.83;99309.16;4776709;29;20054;-83
2021/10/17 00:45:41;;;;;;;46.95;17.65;;;;;;;6.19;75.71;99318.59;4806125;29;20050;-82
2021/10/17 00:48:09;;;;;;;39.38;16.48;;;;;;;6.17;75.49;99320.78;4790614;29;20466;-83
2021/10/17 00:50:35;;;;;;;41.47;16.00;;;;;;;6.19;75.38;99308.56;4806458;29;20057;-91
2021/10/17 00:53:02;;;;;;;41.50;16.75;;;;;;;6.13;75.59;99303.47;4806395;29;20057;-85
2021/10/17 00:55:31;;;;;;;43.08;16.75;;;;;;;6.01;75.46;99287.53;4807451;29;20051;-87
2021/10/17 00:58:01;;;;;;;52.83;16.83;;;;;;;5.97;75.74;99284.56;4806619;29;20039;-90
2021/10/17 01:00:28;;;;;;;39.53;16.13;;;;;;;6.10;75.53;99299.41;4776745;29;20047;-86
2021/10/17 01:02:54;;;;;;;42.33;15.13;;;;;;;6.13;75.59;99308.88;4789539;30;20098;-83
2021/10/17 01:05:22;;;;;;;41.28;16.15;;;;;;;6.05;75.82;99300.25;4746071;30;20043;-82
2021/10/17 01:07:50;;;;;;;41.10;16.52;;;;;;;5.99;75.76;99298.66;4796896;29;20058;-82
2021/10/17 01:10:18;;;;;;;38.47;16.38;;;;;;;6.08;75.98;99312.44;4775922;29;20058;-87
2021/10/17 01:12:47;;;;;;;44.60;16.08;;;;;;;6.06;76.27;99320.88;4806008;29;20082;-82
2021/10/17 01:15:16;;;;;;;40.80;16.13;;;;;;;5.95;75.92;99302.22;4774954;29;20487;-83
2021/10/17 01:17:52;;;;;;;49.97;16.63;;;;;;;5.98;75.90;99299.75;4805782;29;20057;-83
2021/10/17 01:20:22;;;;;;;42.28;17.13;;;;;;;5.92;75.70;99298.13;4804516;29;20039;-84
2021/10/17 01:22:50;;;;;;;42.20;16.98;;;;;;;6.00;76.31;99316.56;4789815;29;20570;-91
2021/10/17 01:25:17;;;;;;;39.45;15.80;;;;;;;5.87;76.09;99292.75;4789351;29;20057;-87
2021/10/17 01:27:44;;;;;;;40.20;16.65;;;;;;;5.99;75.93;99317.66;4783686;29;20525;-82
2021/10/17 01:30:16;;;;;;;41.03;16.55;;;;;;;5.99;75.95;99316.84;4804540;29;20049;-83
2021/10/17 01:32:44;;;;;;;39.50;16.23;;;;;;;5.97;76.17;99302.75;4803811;29;20054;-83
2021/10/17 01:35:11;;;;;;;41.35;17.15;;;;;;;5.99;76.35;99309.50;4774174;29;20142;-83
2021/10/17 01:37:37;;;;;;;43.20;16.58;;;;;;;5.91;76.27;99287.59;4804394;29;20485;-87
2021/10/17 01:40:04;;;;;;;43.17;16.30;;;;;;;6.08;76.22;99315.97;4805607;29;20505;-84
2021/10/17 01:42:32;;;;;;;39.75;15.85;;;;;;;6.05;75.79;99308.38;4774146;29;20046;-83
2021/10/17 01:44:59;;;;;;;44.40;15.43;;;;;;;6.07;75.75;99310.81;4805955;29;20047;-84
2021/10/17 01:47:29;;;;;;;46.63;16.10;;;;;;;5.83;75.72;99273.53;4804936;29;20501;-91
2021/10/17 01:49:56;;;;;;;42.03;16.13;;;;;;;5.95;75.75;99302.22;4804639;29;20051;-85
2021/10/17 01:52:23;;;;;;;;;;;;;;;5.96;75.88;99306.56;4806200;29;20130;-84
2021/10/17 01:54:50;;;;;;;32.47;12.60;;;;;;;5.90;76.17;99308.47;4803654;29;20430;-83
2021/10/17 01:57:21;;;;;;;38.38;15.00;;;;;;;5.87;76.48;99300.91;4792507;29;20085;-83
2021/10/17 01:59:48;;;;;;;40.70;14.93;;;;;;;5.69;76.41;99274.44;4804093;29;20043;-89
2021/10/17 02:02:25;;;;;;;36.53;14.35;;;;;;;5.78;76.32;99294.44;4803832;29;20129;-83
2021/10/17 02:04:53;;;;;;;36.97;15.77;;;;;;;5.73;76.63;99291.75;4804343;29;20050;-83
2021/10/17 02:07:19;;;;;;;40.30;16.50;;;;;;;5.65;76.64;99288.56;4803355;29;20129;-83
2021/10/17 02:09:47;;;;;;;45.45;16.08;;;;;;;5.73;76.56;99300.72;4803148;29;20047;-82
2021/10/17 02:12:15;;;;;;;47.43;16.47;;;;;;;5.76;76.60;99293.91;4803491;29;20142;-83
2021/10/17 02:14:42;;;;;;;43.25;17.17;;;;;;;5.56;76.46;99265.84;4788863;29;20713;-83
2021/10/17 02:17:09;;;;;;;41.30;16.63;;;;;;;5.63;76.50;99287.25;4804618;29;20425;-82
2021/10/17 02:19:37;;;;;;;39.90;16.02;;;;;;;5.43;76.37;99252.94;4803214;29;20043;-84
2021/10/17 02:22:05;;;;;;;42.90;16.42;;;;;;;5.64;76.50;99291.56;4803750;29;20051;-83
2021/10/17 02:24:33;;;;;;;46.65;16.00;;;;;;;5.62;76.99;99294.53;4805264;29;20053;-84
2021/10/17 02:26:59;;;;;;;40.08;16.08;;;;;;;5.63;76.57;99290.75;4774684;29;20149;-85
2021/10/17 02:29:51;;;;;;;42.60;15.65;;;;;;;5.64;76.59;99284.22;4786756;29;20147;-82
2021/10/17 02:32:35;;;;;;;48.00;15.82;;;;;;;5.54;76.64;99276.16;4790641;29;20074;-86
2021/10/17 02:35:23;;;;;;;47.65;15.63;;;;;;;5.40;76.76;99254.28;4788779;29;20042;-84
2021/10/17 02:37:51;;;;;;;49.70;16.80;;;;;;;5.39;76.89;99257.25;4804731;29;20514;-83
2021/10/17 02:40:19;;;;;;;45.20;15.95;;;;;;;5.57;76.91;99280.22;4804684;29;20096;-83
2021/10/17 02:42:46;;;;;;;;;;;;;;;5.56;76.79;99275.88;4788449;29;20058;-83
2021/10/17 02:45:13;;;;;;;46.38;16.80;;;;;;;5.42;76.83;99262.94;4759482;29;19928;-83
2021/10/17 02:47:39;;;;;;;41.90;15.20;;;;;;;5.53;76.65;99271.00;4802770;29;20146;-83
2021/10/17 02:50:06;;;;;;;39.17;16.35;;;;;;;5.38;76.80;99258.38;4804316;29;20521;-83
2021/10/17 02:52:33;;;;;;;43.05;16.33;;;;;;;5.34;76.85;99247.28;4773480;29;20050;-82
2021/10/17 02:54:59;;;;;;;50.03;16.88;;;;;;;5.53;76.83;99265.59;4804977;29;20073;-83
2021/10/17 02:57:26;;;;;;;45.72;16.35;;;;;;;5.51;76.70;99268.59;4790550;29;20066;-82
2021/10/17 02:59:52;;;;;;;47.60;17.45;;;;;;;5.37;76.92;99252.13;4808126;29;20053;-83
2021/10/17 03:02:18;;;;;;;49.58;17.33;;;;;;;5.47;76.65;99261.31;4791802;29;20047;-82
2021/10/17 03:04:45;;;;;;;45.97;16.65;;;;;;;5.40;77.00;99256.19;4777174;29;20547;-82
2021/10/17 03:07:12;;;;;;;46.25;16.80;;;;;;;5.28;77.04;99239.44;4791944;29;20051;-81
2021/10/17 03:10:01;;;;;;;43.17;17.42;;;;;;;5.42;76.89;99259.41;4789870;30;20043;-83
2021/10/17 03:12:31;;;;;;;41.72;16.63;;;;;;;5.40;77.03;99265.13;4787512;29;20103;-82
2021/10/17 03:14:59;;;;;;;49.45;17.38;;;;;;;5.39;76.87;99260.78;4792386;29;20051;-83
2021/10/17 03:17:26;;;;;;;43.45;17.23;;;;;;;5.23;77.05;99245.72;4791444;29;20513;-82
2021/10/17 03:19:53;;;;;;;48.55;18.13;;;;;;;5.37;76.96;99265.69;4777086;29;20047;-83
2021/10/17 03:22:20;;;;;;;42.38;16.30;;;;;;;5.31;77.02;99250.53;4791794;29;20048;-84
2021/10/17 03:24:46;;;;;;;38.83;16.23;;;;;;;5.33;77.04;99264.63;4807281;29;20039;-83
2021/10/17 03:27:12;;;;;;;47.00;18.33;;;;;;;5.20;76.95;99243.56;4796435;29;20437;-83
2021/10/17 03:29:43;;;;;;;49.78;19.00;;;;;;;5.31;77.25;99252.44;4803235;29;20055;-84
2021/10/17 03:32:10;;;;;;;46.83;18.08;;;;;;;5.29;77.22;99255.41;4791009;29;20053;-83
2021/10/17 03:34:37;;;;;;;42.92;16.73;;;;;;;5.22;77.48;99254.91;4806719;29;20054;-82
2021/10/17 03:37:05;;;;;;;45.47;16.58;;;;;;;5.24;77.42;99265.50;4806711;29;20047;-83
2021/10/17 03:39:31;;;;;;;50.38;17.27;;;;;;;5.21;77.93;99261.44;4807297;29;20054;-83
2021/10/17 03:41:57;;;;;;;51.13;19.73;;;;;;;5.25;77.40;99262.50;4791247;29;20051;-82
2021/10/17 03:44:23;;;;;;;48.08;18.10;;;;;;;5.10;77.29;99243.59;4807434;29;20053;-83
2021/10/17 03:46:50;;;;;;;46.28;16.92;;;;;;;5.13;77.46;99254.72;4806258;29;20061;-83
2021/10/17 03:49:16;;;;;;;49.92;18.23;;;;;;;5.06;77.80;99247.94;4807692;29;20043;-83
2021/10/17 03:51:42;;;;;;;46.03;16.85;;;;;;;5.13;77.69;99248.47;4807872;29;20070;-89
2021/10/17 03:54:08;;;;;;;46.72;16.67;;;;;;;5.21;77.67;99264.16;4808206;29;20046;-88
2021/10/17 03:56:37;;;;;;;46.10;16.50;;;;;;;5.16;77.47;99248.72;4777237;29;20065;-82
2021/10/17 03:59:09;;;;;;;45.85;17.52;;;;;;;5.19;77.82;99263.59;4807037;29;20100;-83
2021/10/17 04:01:38;;;;;;;42.63;17.10;;;;;;;5.16;77.79;99256.84;4807050;29;20680;-82
2021/10/17 04:04:04;;;;;;;51.80;17.50;;;;;;;5.01;77.85;99229.03;4790969;29;20082;-83
2021/10/17 04:06:32;;;;;;;44.75;16.75;;;;;;;5.18;77.74;99262.81;4806308;29;20047;-83
2021/10/17 04:09:04;;;;;;;43.40;16.90;;;;;;;5.17;77.78;99253.06;4804880;29;20549;-84
2021/10/17 04:11:32;;;;;;;45.20;17.23;;;;;;;5.17;77.58;99249.53;4807118;29;20074;-90
2021/10/17 04:13:58;;;;;;;41.25;16.20;;;;;;;5.02;77.51;99228.75;4805988;29;20051;-84
2021/10/17 04:16:24;;;;;;;43.72;16.48;;;;;;;4.92;77.61;99215.25;4790814;29;20103;-82
2021/10/17 04:18:50;;;;;;;49.85;18.60;;;;;;;5.19;77.38;99263.59;4807023;29;20042;-83
2021/10/17 04:21:17;;;;;;;55.60;18.23;;;;;;;5.18;77.63;99262.00;4806011;29;20055;-83
2021/10/17 04:23:44;;;;;;;43.38;16.95;;;;;;;5.02;77.30;99230.63;4776499;29;20081;-84
2021/10/17 04:26:10;;;;;;;47.05;17.13;;;;;;;5.21;77.40;99249.78;4805966;29;20039;-85
2021/10/17 04:28:43;;;;;;;52.22;16.90;;;;;;;5.20;77.36;99262.53;4778227;30;20085;-85
2021/10/17 04:31:10;;;;;;;46.05;16.73;;;;;;;5.24;77.31;99265.50;4788249;30;20054;-83
2021/10/17 04:33:36;;;;;;;50.20;18.10;;;;;;;5.01;77.21;99218.19;4773890;30;20047;-84
2021/10/17 04:36:04;;;;;;;44.72;16.45;;;;;;;5.27;77.18;99263.03;4790125;30;20047;-85
2021/10/17 04:38:33;;;;;;;43.08;15.68;;;;;;;5.22;76.88;99254.91;4801135;29;20423;-91
2021/10/17 04:41:01;;;;;;;51.38;17.35;;;;;;;5.31;77.01;99261.38;4808468;29;20050;-83
2021/10/17 04:43:27;;;;;;;41.40;17.35;;;;;;;5.19;77.04;99244.63;4808936;29;20055;-85
2021/10/17 04:45:54;;;;;;;48.53;16.95;;;;;;;5.22;77.02;99241.38;4807721;29;20058;-86
2021/10/17 04:48:21;;;;;;;35.13;16.05;;;;;;;5.02;77.11;99217.09;4775983;29;20043;-85
2021/10/17 04:50:49;;;;;;;42.08;17.23;;;;;;;5.09;77.14;99223.81;4808172;29;20160;-86
2021/10/17 04:53:15;;;;;;;45.80;17.05;;;;;;;5.25;76.98;99245.44;4808240;29;20057;-86
2021/10/17 04:55:43;;;;;;;54.15;17.88;;;;;;;5.24;76.94;99241.09;4777386;29;20057;-91
2021/10/17 04:58:15;;;;;;;46.08;15.77;;;;;;;5.12;76.59;99215.13;4792229;29;20062;-86
2021/10/17 05:00:42;;;;;;;43.80;16.65;;;;;;;5.30;76.82;99251.63;4812043;29;20043;-85
2021/10/17 05:03:09;;;;;;;35.50;15.90;;;;;;;5.33;76.87;99259.22;4803752;29;20057;-84
2021/10/17 05:05:36;;;;;;;44.83;16.48;;;;;;;5.22;76.89;99225.09;4798660;29;20050;-84
2021/10/17 05:08:04;;;;;;;41.53;16.40;;;;;;;5.34;76.71;99236.44;4809368;29;20046;-86
2021/10/17 05:10:35;;;;;;;37.67;15.50;;;;;;;5.19;76.74;99212.13;4778062;29;20039;-87
2021/10/17 05:13:06;;;;;;;44.95;16.80;;;;;;;5.42;76.48;99246.66;4776737;29;20066;-86
2021/10/17 05:15:33;;;;;;;42.33;17.42;;;;;;;5.41;76.39;99244.25;4775787;29;20043;-85
2021/10/17 05:17:59;;;;;;;46.40;17.90;;;;;;;5.24;76.38;99217.53;4808397;29;20043;-87
2021/10/17 05:20:25;;;;;;;37.15;15.75;;;;;;;5.28;76.50;99221.28;4809183;29;20047;-86
2021/10/17 05:22:53;;;;;;;36.08;15.40;;;;;;;5.31;76.07;99222.63;4807973;29;20050;-86
2021/10/17 05:25:19;;;;;;;41.20;15.75;;;;;;;5.60;76.13;99263.38;4808320;29;20145;-79
2021/10/17 05:27:47;;;;;;;38.85;15.85;;;;;;;5.51;75.71;99246.09;4811214;29;20070;-78
2021/10/17 05:30:13;;;;;;;38.00;16.27;;;;;;;5.57;75.83;99244.97;4826740;29;20068;-83
2021/10/17 05:32:40;;;;;;;37.22;15.32;;;;;;;5.85;75.80;99252.34;4769022;30;20062;-84
2021/10/17 05:35:06;;;;;;;39.80;15.02;;;;;;;5.89;75.02;99239.00;4784631;30;20150;-86
2021/10/17 05:37:33;;;;;;;40.35;15.65;;;;;;;5.95;74.58;99240.63;4769035;30;20056;-85
2021/10/17 05:40:00;;;;;;;36.65;15.40;;;;;;;6.09;74.19;99247.03;4752577;30;20048;-91
2021/10/17 05:42:26;;;;;;;52.30;16.00;;;;;;;6.24;74.17;99251.50;4738214;30;20113;-86
2021/10/17 05:44:52;;;;;;;38.58;15.57;;;;;;;6.26;74.02;99257.47;4738838;30;20050;-87
2021/10/17 05:47:23;;;;;;;49.15;15.07;;;;;;;6.09;73.70;99219.91;4751750;30;20058;-87
2021/10/17 05:49:49;;;;;;;36.10;14.95;;;;;;;6.21;73.66;99224.94;4754021;30;20055;-85
2021/10/17 05:52:19;;;;;;;44.92;16.23;;;;;;;6.40;73.49;99238.59;4771252;30;20041;-85
2021/10/17 05:54:45;;;;;;;40.38;14.73;;;;;;;6.59;73.55;99265.84;4756118;30;20040;-87
2021/10/17 05:57:14;;;;;;;40.95;15.27;;;;;;;6.65;73.47;99256.50;4742049;30;20044;-87
2021/10/17 05:59:40;;;;;;;41.30;14.90;;;;;;;6.72;72.94;99269.75;4773342;30;20065;-86
2021/10/17 06:02:06;;;;;;;40.30;15.27;;;;;;;6.72;72.83;99267.88;4758865;30;20052;-86
2021/10/17 06:04:38;;;;;;;38.17;14.55;;;;;;;6.59;72.66;99236.78;4808124;29;20096;-88
2021/10/17 06:07:11;;;;;;;41.50;15.27;;;;;;;6.74;72.60;99238.50;4824838;29;20085;-86
2021/10/17 06:09:39;;;;;;;37.33;14.68;;;;;;;6.81;71.92;99243.56;4794547;29;20075;-85
2021/10/17 06:12:06;;;;;;;38.72;15.98;;;;;;;6.86;72.17;99240.81;4810499;29;20050;-85
2021/10/17 06:14:36;;;;;;;43.92;14.48;;;;;;;6.94;71.62;99242.06;4796026;29;20049;-86
2021/10/17 06:17:04;;;;;;;38.97;14.75;;;;;;;6.91;71.76;99239.94;4826066;29;20023;-85
2021/10/17 06:19:33;;;;;;;40.40;15.05;;;;;;;6.97;71.34;99257.78;4795646;29;20170;-86
2021/10/17 06:22:03;;;;;;;36.97;15.52;;;;;;;7.11;71.91;99268.75;4781478;29;20038;-86
2021/10/17 06:24:34;;;;;;;35.40;13.52;;;;;;;7.03;71.65;99264.78;4827271;29;20234;-86
2021/10/17 06:27:01;;;;;;;34.92;13.65;;;;;;;7.07;71.12;99269.34;4800398;29;20051;-87
2021/10/17 06:29:27;;;;;;;38.70;15.02;;;;;;;6.97;71.04;99268.66;4823183;29;20039;-90
2021/10/17 06:31:54;;;;;;;37.53;14.32;;;;;;;7.19;71.59;99274.38;4807948;29;20142;-91
2021/10/17 06:34:22;;;;;;;38.15;13.63;;;;;;;6.99;70.83;99267.28;4794344;29;20054;-86
2021/10/17 06:36:48;;;;;;;39.57;13.43;;;;;;;6.91;71.19;99264.38;4778946;29;20091;-87
2021/10/17 06:39:14;;;;;;;36.90;14.93;;;;;;;6.67;71.19;99224.44;4808990;29;20047;-90
2021/10/17 06:41:40;;;;;;;41.03;15.25;;;;;;;6.91;71.34;99261.66;4808315;29;20051;-91
2021/10/17 06:44:16;;;;;;;36.78;14.48;;;;;;;7.04;70.91;99280.78;4794514;29;20047;-86
2021/10/17 06:46:49;;;;;;;36.33;14.35;;;;;;;7.08;71.04;99291.88;4793628;29;20071;-86
2021/10/17 06:49:18;;;;;;;39.38;15.25;;;;;;;6.83;70.93;99242.19;4779295;29;20055;-89
2021/10/17 06:54:32;;;;;;;40.28;15.55;;;;;;;6.97;70.85;99255.06;4753855;30;20067;-86
2021/10/17 06:56:58;;;;;;;39.08;15.25;;;;;;;7.03;70.91;99270.22;4738469;30;20060;-86
2021/10/17 06:59:24;;;;;;;43.92;15.75;;;;;;;7.08;71.21;99264.72;4723530;30;20112;-85
2021/10/17 07:01:50;;;;;;;32.72;13.80;;;;;;;7.27;70.57;99286.50;4728474;30;20697;-85
2021/10/17 07:04:17;;;;;;;34.67;13.98;;;;;;;7.32;70.45;99282.91;4733122;30;20075;-93
2021/10/17 07:06:49;;;;;;;32.67;14.27;;;;;;;7.31;70.09;99271.22;4721313;30;20424;-93
2021/10/17 07:09:39;;;;;;;42.65;14.85;;;;;;;7.31;69.65;99265.78;4731621;30;20072;-90
2021/10/17 07:12:27;;;;;;;37.78;14.75;;;;;;;7.27;70.23;99248.44;4725553;30;20062;-92
2021/10/17 07:15:08;;;;;;;41.03;14.98;;;;;;;7.41;69.88;99262.91;4724847;30;20044;-93
2021/10/17 07:18:10;;;;;;;40.60;15.55;;;;;;;7.79;69.44;99281.16;4750111;30;20055;-86
2021/10/17 07:20:50;;;;;;;29.33;11.48;;;;;;;7.75;68.75;99279.03;4731943;30;20511;-85
2021/10/17 07:23:19;;;;;;;40.03;14.60;;;;;;;7.86;68.82;99289.75;4744140;30;20082;-81
2021/10/17 07:25:46;;;;;;;40.53;14.82;;;;;;;7.78;69.32;99280.34;4705380;30;20048;-85
2021/10/17 07:28:13;;;;;;;34.45;10.98;;;;;;;7.66;68.78;99280.81;4737440;30;20135;-88
2021/10/17 07:30:57;;;;;;;34.00;13.10;;;;;;;7.69;69.84;99255.72;4732378;30;20055;-85
2021/10/17 07:33:23;;;;;;;30.02;12.80;;;;;;;7.71;68.94;99245.34;4789566;29;20047;-85
2021/10/17 07:35:50;;;;;;;38.05;15.57;;;;;;;7.92;68.50;99267.63;4801382;29;20130;-83
2021/10/17 07:38:16;;;;;;;;;;;;;;;8.08;68.88;99298.13;4794410;29;20043;-85
2021/10/17 07:40:45;;;;;;;26.33;11.65;;;;;;;8.06;68.07;99270.38;4791630;29;20621;-90
2021/10/17 07:43:11;;;;;;;33.45;13.38;;;;;;;8.07;68.52;99266.56;4801108;29;20094;-87
2021/10/17 07:45:37;;;;;;;32.63;13.43;;;;;;;8.06;68.13;99270.38;4792885;29;20045;-85
2021/10/17 07:48:04;;;;;;;31.77;11.95;;;;;;;8.21;68.05;99296.53;4796523;29;20130;-88
2021/10/17 07:50:31;;;;;;;36.37;13.27;;;;;;;8.05;67.78;99266.06;4776611;29;20055;-85
2021/10/17 07:53:00;;;;;;;35.20;13.02;;;;;;;8.03;67.88;99257.38;4791162;29;20078;-88
2021/10/17 07:55:33;;;;;;;33.58;12.65;;;;;;;8.15;67.49;99263.16;4806237;29;20049;-85
2021/10/17 07:58:03;;;;;;;33.95;12.40;;;;;;;8.22;67.81;99277.19;4778737;29;20039;-85
2021/10/17 08:00:37;;;;;;;41.72;14.02;;;;;;;8.30;67.80;99264.00;4776759;29;20504;-84
2021/10/17 08:03:22;;;;;;;38.88;12.82;;;;;;;8.61;66.94;99288.78;4806071;29;20043;-81
2021/10/17 08:06:05;;;;;;;28.08;11.85;;;;;;;8.51;66.80;99289.81;4806082;29;20047;-82
2021/10/17 08:08:33;;;;;;;30.85;11.65;;;;;;;8.72;66.92;99301.16;4784549;29;20488;-82
2021/10/17 08:10:59;;;;;;;36.03;13.18;;;;;;;8.86;66.91;99293.78;4772092;29;20045;-82
2021/10/17 08:13:26;;;;;;;40.07;13.50;;;;;;;9.05;65.82;99304.59;4805591;29;20142;-77
2021/10/17 08:15:57;;;;;;;33.22;13.60;;;;;;;8.99;65.68;99294.09;4806612;29;20303;-75
2021/10/17 08:18:26;;;;;;;41.75;13.70;;;;;;;8.95;65.95;99310.25;4805776;29;20046;-79
2021/10/17 08:21:01;;;;;;;44.15;13.73;;;;;;;8.87;65.88;99306.31;4805543;29;20051;-82
2021/10/17 08:23:30;;;;;;;29.48;11.48;;;;;;;8.83;65.81;99283.47;4806110;29;20055;-88
2021/10/17 08:25:57;;;;;;;36.15;12.27;;;;;;;9.16;65.71;99300.53;4807527;29;20047;-83
2021/10/17 08:28:25;;;;;;;42.55;12.10;;;;;;;9.06;65.18;99308.94;4775994;29;20059;-83
2021/10/17 08:31:00;;;;;;;35.65;11.88;;;;;;;8.86;65.79;99279.34;4806393;29;20054;-83
2021/10/17 08:33:29;;;;;;;38.78;11.25;;;;;;;9.17;65.71;99309.53;4807345;29;20076;-88
2021/10/17 08:35:55;;;;;;;31.65;11.63;;;;;;;9.03;64.92;99295.91;4805667;29;20047;-81
2021/10/17 08:38:22;;;;;;;29.27;11.75;;;;;;;9.12;65.36;99301.47;4805358;29;20062;-82
2021/10/17 08:40:52;;;;;;;30.58;10.38;;;;;;;8.98;64.55;99293.28;4790615;29;20080;-82
2021/10/17 08:43:22;;;;;;;30.27;11.60;;;;;;;8.69;65.44;99275.28;4791338;29;20137;-82
2021/10/17 08:46:09;;;;;;;;;;;;;;;8.81;65.77;99314.91;4808657;29;20093;-83
2021/10/17 08:48:46;;;;;;;29.65;11.20;;;;;;;8.74;65.80;99314.47;4813511;29;19925;-83
2021/10/17 08:51:14;;;;;;;38.88;10.80;;;;;;;8.70;65.54;99304.16;4806036;29;20493;-90
2021/10/17 08:53:48;;;;;;;30.75;10.95;;;;;;;8.58;65.84;99297.59;4808283;29;20149;-91
2021/10/17 08:56:20;;;;;;;33.30;11.88;;;;;;;8.56;66.12;99297.88;4806655;29;20043;-84
2021/10/17 08:58:47;;;;;;;30.02;11.38;;;;;;;8.79;65.65;99314.38;4808096;29;20074;-82
2021/10/17 09:01:23;;;;;;;36.35;12.75;;;;;;;8.88;65.78;99313.38;4815672;29;20043;-82
2021/10/17 09:03:56;;;;;;;30.30;10.90;;;;;;;8.93;65.54;99316.00;4818660;29;20054;-82
2021/10/17 09:06:35;;;;;;;31.67;10.85;;;;;;;8.90;65.41;99302.97;4795190;29;20417;-88
2021/10/17 09:09:07;;;;;;;41.25;12.68;;;;;;;8.89;64.81;99323.16;4808135;29;20057;-83
2021/10/17 09:11:46;;;;;;;30.70;11.32;;;;;;;9.07;64.98;99315.19;4804931;29;20081;-86
2021/10/17 09:14:14;;;;;;;33.30;12.27;;;;;;;9.15;64.68;99303.59;4785710;30;20425;-93
2021/10/17 09:16:43;;;;;;;35.47;11.55;;;;;;;9.20;64.18;99308.13;4784971;29;20057;-83
2021/10/17 09:19:12;;;;;;;31.80;12.07;;;;;;;9.24;64.44;99303.66;4760642;29;20054;-85
2021/10/17 09:21:51;;;;;;;;;;;;;;;9.34;63.84;99323.38;4804182;29;20453;-81
2021/10/17 09:24:48;;;;;;;36.47;12.45;;;;;;;9.43;63.37;99322.66;4805842;29;19970;-81
2021/10/17 09:27:23;;;;;;;35.30;10.93;;;;;;;9.36;62.84;99325.78;4787214;29;20066;-80
2021/10/17 09:29:54;;;;;;;37.03;10.80;;;;;;;8.99;63.46;99289.44;4801106;29;20057;-80
2021/10/17 09:32:25;;;;;;;34.63;10.20;;;;;;;8.97;63.18;99297.13;4804988;29;20051;-83
2021/10/17 09:35:02;;;;;;;26.75;8.75;;;;;;;9.12;63.21;99323.28;4760338;29;20039;-73
2021/10/17 09:37:43;;;;;;;28.75;9.52;;;;;;;9.15;63.25;99323.47;4805757;29;20051;-74
2021/10/17 09:40:32;;;;;;;30.42;9.45;;;;;;;9.17;63.13;99318.53;4797325;29;20046;-75
2021/10/17 09:43:30;;;;;;;31.83;10.40;;;;;;;9.30;62.86;99316.09;4805755;29;20075;-75
2021/10/17 09:46:15;;;;;;;35.53;10.65;;;;;;;9.29;62.24;99317.22;4789753;29;20580;-92
2021/10/17 09:48:43;;;;;;;30.27;9.23;;;;;;;9.22;61.72;99319.56;4805354;29;20464;-82
2021/10/17 09:51:39;;;;;;;23.55;8.55;;;;;;;9.06;62.04;99302.69;4805620;29;20082;-76
2021/10/17 09:54:06;;;;;;;34.22;9.02;;;;;;;9.10;62.16;99322.78;4786986;29;20058;-75
2021/10/17 09:56:37;;;;;;;37.17;9.95;;;;;;;9.23;62.60;99316.50;4805341;29;20570;-77
2021/10/17 09:59:06;;;;;;;29.52;9.88;;;;;;;9.24;62.32;99322.75;4789049;29;20534;-88
2021/10/17 10:01:33;;;;;;;32.55;10.07;;;;;;;9.23;61.95;99318.44;4805157;29;20099;-77
2021/10/17 10:04:03;;;;;;;34.35;11.02;;;;;;;9.22;62.35;99319.56;4805480;29;20390;-78
2021/10/17 10:06:30;;;;;;;28.02;9.98;;;;;;;9.02;62.43;99307.13;4805026;29;20104;-77
2021/10/17 10:09:06;;;;;;;;;;;;;;;9.17;63.14;99315.81;4790432;29;20051;-75
2021/10/17 10:11:37;;;;;;;27.98;9.60;;;;;;;9.07;62.71;99294.22;4804984;29;19924;-93
2021/10/17 10:14:06;;;;;;;28.95;9.45;;;;;;;9.16;62.27;99314.19;4805299;29;20484;-88
2021/10/17 10:16:35;;;;;;;33.60;9.18;;;;;;;9.14;62.44;99326.53;4806137;29;20050;-92
2021/10/17 10:19:10;;;;;;;25.45;9.02;;;;;;;9.13;62.12;99322.16;4806130;29;20054;-94
2021/10/17 10:21:37;;;;;;;29.20;9.38;;;;;;;9.09;62.49;99308.34;4805863;29;20054;-84
2021/10/17 10:24:09;;;;;;;32.28;9.43;;;;;;;9.15;62.54;99315.31;4805910;29;20521;-76
2021/10/17 10:26:36;;;;;;;25.40;9.35;;;;;;;9.19;62.75;99320.97;4807078;29;20115;-92
2021/10/17 10:29:04;;;;;;;32.20;9.73;;;;;;;9.14;63.38;99321.06;4806547;29;20043;-85
2021/10/17 10:31:40;;;;;;;24.10;9.43;;;;;;;9.09;63.42;99310.25;4806044;29;20057;-77
2021/10/17 10:34:07;;;;;;;32.28;12.25;;;;;;;9.13;63.33;99312.06;4801461;29;20055;-87
2021/10/17 10:36:44;;;;;;;22.98;10.73;;;;;;;9.13;63.53;99311.25;4795322;29;20494;-76
2021/10/17 10:39:17;;;;;;;;;;;;;;;9.27;63.34;99312.09;4804920;29;20078;-80
2021/10/17 10:41:57;;;;;;;32.70;11.32;;;;;;;9.27;63.26;99300.34;4804325;29;19925;-83
2021/10/17 10:44:25;;;;;;;26.95;10.13;;;;;;;9.43;62.94;99315.28;4805349;29;20051;-79
2021/10/17 10:46:54;;;;;;;30.08;9.45;;;;;;;9.44;62.78;99313.34;4805468;29;20179;-78
2021/10/17 10:49:40;;;;;;;32.65;10.30;;;;;;;9.55;62.75;99307.38;4789262;29;20429;-76
2021/10/17 10:52:31;;;;;;;29.10;8.82;;;;;;;9.66;62.14;99318.88;4802861;29;20081;-87
2021/10/17 10:55:01;;;;;;;26.67;9.48;;;;;;;9.50;61.66;99304.75;4793871;29;20084;-91
2021/10/17 10:57:29;;;;;;;31.27;9.43;;;;;;;9.45;61.72;99306.81;4800959;29;20134;-76
2021/10/17 11:00:00;;;;;;;18.85;8.30;;;;;;;9.54;62.03;99311.22;4790989;29;20066;-76
2021/10/17 11:02:30;;;;;;;24.38;8.85;;;;;;;9.51;61.91;99308.31;4801833;29;20047;-76
2021/10/17 11:04:58;;;;;;;35.63;8.82;;;;;;;9.55;62.30;99312.03;4803331;29;20047;-87
2021/10/17 11:07:39;;;;;;;24.60;7.95;;;;;;;9.46;61.85;99306.47;4800003;29;20039;-91
2021/10/17 11:10:27;;;;;;;22.75;8.85;;;;;;;9.29;61.94;99296.19;4799860;29;20101;-73
2021/10/17 11:12:59;;;;;;;28.90;8.05;;;;;;;9.43;62.28;99298.91;4792396;29;20053;-74
2021/10/17 11:15:35;;;;;;;18.83;7.95;;;;;;;9.38;61.85;99302.56;4799639;29;20067;-76
2021/10/17 11:18:11;;;;;;;27.15;9.65;;;;;;;9.35;62.15;99302.38;4790365;29;20106;-88
2021/10/17 11:20:46;;;;;;;31.40;12.25;;;;;;;9.47;62.23;99291.75;4791673;30;20058;-77
2021/10/17 11:23:25;;;;;;;29.42;10.90;;;;;;;9.48;61.96;99268.78;4790249;30;20051;-83
2021/10/17 11:25:56;;;;;;;26.60;9.90;;;;;;;9.59;61.71;99281.09;4792237;30;20088;-86
2021/10/17 11:28:23;;;;;;;27.92;9.55;;;;;;;9.79;61.05;99281.75;4805953;29;20055;-88
2021/10/17 11:31:03;;;;;;;42.17;13.43;;;;;;;9.76;60.37;99283.16;4806422;29;20628;-78
2021/10/17 11:33:31;;;;;;;38.92;17.13;;;;;;;9.77;61.07;99292.19;4810504;29;20042;-94
2021/10/17 11:35:57;;;;;;;41.45;15.85;;;;;;;9.83;60.56;99282.72;4807766;29;20054;-76
2021/10/17 11:38:25;;;;;;;40.92;10.20;;;;;;;9.87;60.19;99272.84;4806534;29;20416;-76
2021/10/17 11:40:59;;;;;;;33.72;9.52;;;;;;;9.88;60.63;99266.25;4775223;29;20050;-80
2021/10/17 11:43:33;;;;;;;28.40;10.30;;;;;;;9.88;60.59;99283.44;4790663;29;20038;-76
2021/10/17 11:46:06;;;;;;;50.70;23.15;;;;;;;9.82;60.89;99267.47;4804465;29;20079;-85